• images/banner/banner1.jpg
  • images/banner/banner2.jpg

Team Member Login

Aviation Weather

[source: ADDS]
METAR
EGVN 182350Z 27005KT 9999 SCT080 05/04 Q1021 NOSIG =
TAF
TAF EGVN 182225Z 1900/1924 29004KT CAVOK PROB40 1900/1903 5000 BR PROB30 1902/1908 1200 BR MIFG BECMG 1921/1923 BKN020 =